Time;durP1;ratioP1;P1;durP2;ratioP2;P2;SDS_P1;SDS_P2;PMS_P1;PMS_P2;Temp;Humidity;BMP_temperature;BMP_pressure;BME280_temperature;BME280_humidity;BME280_pressure;Samples;Min_cycle;Max_cycle;Signal;HPM_P1;HPM_P2
2023/08/23 00:01:52;;;;;;;6.43;1.45;;;17.00;97.70;;;;;;5017977;28;87915;-79
2023/08/23 00:04:21;;;;;;;2.28;0.80;;;17.00;97.40;;;;;;5016919;28;88831;-76
2023/08/23 00:06:47;;;;;;;2.67;1.10;;;17.00;97.60;;;;;;5014560;28;88482;-76
2023/08/23 00:09:13;;;;;;;5.35;1.63;;;17.00;97.50;;;;;;5017571;28;87719;-79
2023/08/23 00:11:39;;;;;;;4.25;1.05;;;17.00;97.40;;;;;;5018203;28;88587;-76
2023/08/23 00:14:05;;;;;;;3.78;1.13;;;17.00;97.40;;;;;;5016907;28;88146;-78
2023/08/23 00:16:31;;;;;;;1.67;1.13;;;16.90;97.50;;;;;;5017445;28;87800;-79
2023/08/23 00:18:57;;;;;;;4.68;1.25;;;16.90;97.50;;;;;;5015076;28;89549;-78
2023/08/23 00:21:22;;;;;;;4.22;1.27;;;16.90;97.60;;;;;;5013567;28;91313;-78
2023/08/23 00:23:48;;;;;;;2.40;0.90;;;16.80;98.00;;;;;;5018298;28;87250;-78
2023/08/23 00:26:14;;;;;;;5.38;1.00;;;16.80;98.10;;;;;;5015417;28;87389;-75
2023/08/23 00:28:40;;;;;;;3.55;1.20;;;16.80;98.20;;;;;;5015621;28;90323;-76
2023/08/23 00:31:06;;;;;;;4.20;1.10;;;16.70;98.30;;;;;;5015759;28;89527;-76
2023/08/23 00:33:32;;;;;;;6.20;1.20;;;16.70;98.10;;;;;;5016513;28;88258;-79
2023/08/23 00:35:57;;;;;;;2.67;1.20;;;16.70;98.20;;;;;;5018045;28;87795;-77
2023/08/23 00:38:23;;;;;;;4.18;1.20;;;16.70;98.80;;;;;;4998481;28;90247;-78
2023/08/23 00:40:49;;;;;;;5.50;1.20;;;16.60;98.80;;;;;;5016860;28;89398;-78
2023/08/23 00:43:15;;;;;;;7.30;1.65;;;16.60;98.50;;;;;;4998728;28;90945;-78
2023/08/23 00:45:42;;;;;;;4.07;1.30;;;16.60;98.80;;;;;;5016925;28;87384;-78
2023/08/23 00:48:10;;;;;;;7.82;1.17;;;16.60;99.20;;;;;;5015903;28;91330;-78
2023/08/23 00:50:38;;;;;;;5.05;1.38;;;16.60;99.10;;;;;;5016421;28;93225;-76
2023/08/23 00:53:06;;;;;;;2.85;1.40;;;16.60;99.10;;;;;;5016141;28;87826;-78
2023/08/23 00:55:33;;;;;;;5.13;1.20;;;16.60;98.90;;;;;;4998251;28;88502;-78
2023/08/23 00:57:59;;;;;;;10.10;1.05;;;16.60;98.80;;;;;;5005195;28;90403;-78
2023/08/23 01:00:26;;;;;;;4.30;1.10;;;16.60;98.70;;;;;;5016769;28;88538;-79
2023/08/23 01:02:53;;;;;;;2.72;1.42;;;16.60;98.80;;;;;;4999875;28;88639;-78
2023/08/23 01:05:24;;;;;;;2.42;1.05;;;16.50;98.90;;;;;;4998820;28;87537;-79
2023/08/23 01:07:58;;;;;;;2.22;1.30;;;16.50;98.90;;;;;;4998566;28;89507;-76
2023/08/23 01:10:50;;;;;;;1.88;1.60;;;16.50;99.20;;;;;;4997221;28;91914;-75
2023/08/23 01:13:26;;;;;;;6.40;1.45;;;16.50;99.10;;;;;;5017016;28;87933;-78
2023/08/23 01:15:54;;;;;;;3.55;1.40;;;16.50;99.20;;;;;;5016478;28;87842;-78
2023/08/23 01:18:21;;;;;;;5.50;1.50;;;16.50;99.10;;;;;;4998546;28;90553;-78
2023/08/23 01:20:50;;;;;;;6.13;1.40;;;16.50;99.00;;;;;;5015078;28;92959;-78
2023/08/23 01:23:17;;;;;;;3.28;1.30;;;16.50;98.90;;;;;;5016686;28;88785;-78
2023/08/23 01:25:50;;;;;;;3.33;1.45;;;16.40;98.90;;;;;;5016275;28;87933;-79
2023/08/23 01:28:16;;;;;;;3.63;1.38;;;16.50;99.10;;;;;;5016720;28;87629;-78
2023/08/23 01:30:41;;;;;;;4.38;1.42;;;16.50;98.90;;;;;;5016311;28;88354;-78
2023/08/23 01:33:22;;;;;;;5.20;1.40;;;16.40;98.70;;;;;;4998851;28;91646;-78
2023/08/23 01:36:09;;;;;;;3.58;1.33;;;16.40;98.70;;;;;;5016801;28;87599;-78
2023/08/23 01:38:35;;;;;;;7.70;1.45;;;16.40;98.80;;;;;;5016242;28;92487;-76
2023/08/23 01:41:02;;;;;;;1.88;1.40;;;16.40;98.80;;;;;;4997282;28;92048;-78
2023/08/23 01:43:28;;;;;;;4.63;1.20;;;16.40;98.60;;;;;;4997188;28;91561;-77
2023/08/23 01:45:54;;;;;;;5.93;1.42;;;16.40;98.60;;;;;;5014234;28;88495;-78
2023/08/23 01:48:20;;;;;;;4.47;1.73;;;16.30;98.70;;;;;;5016174;28;87848;-79
2023/08/23 01:50:45;;;;;;;4.10;1.73;;;16.30;98.70;;;;;;5017203;28;88661;-78
2023/08/23 01:53:11;;;;;;;6.20;1.50;;;16.20;98.60;;;;;;4997789;28;90115;-79
2023/08/23 01:55:37;;;;;;;3.63;1.10;;;16.20;98.60;;;;;;4997985;28;87794;-78
2023/08/23 01:58:02;;;;;;;2.53;1.48;;;16.20;98.50;;;;;;5016057;28;87996;-79
2023/08/23 02:00:28;;;;;;;2.92;1.73;;;16.20;98.70;;;;;;5016016;28;88541;-79
2023/08/23 02:02:54;;;;;;;2.45;1.15;;;16.20;98.70;;;;;;4999135;28;91628;-78
2023/08/23 02:05:19;;;;;;;4.78;1.45;;;16.10;98.70;;;;;;4997955;28;87473;-79
2023/08/23 02:07:45;;;;;;;3.47;1.60;;;16.10;99.00;;;;;;4996080;28;90553;-78
2023/08/23 02:10:11;;;;;;;4.82;1.52;;;16.00;99.20;;;;;;5015648;28;89221;-78
2023/08/23 02:12:36;;;;;;;4.10;1.33;;;16.00;99.30;;;;;;4997730;28;91353;-78
2023/08/23 02:15:02;;;;;;;4.88;1.70;;;16.00;99.20;;;;;;5017732;28;87419;-78
2023/08/23 02:17:28;;;;;;;4.95;1.77;;;16.00;99.20;;;;;;5016104;28;89325;-79
2023/08/23 02:19:53;;;;;;;5.47;1.92;;;16.00;99.10;;;;;;4996752;28;91794;-78
2023/08/23 02:22:19;;;;;;;1.95;1.30;;;15.90;99.00;;;;;;5015740;28;87883;-79
2023/08/23 02:24:44;;;;;;;4.15;1.33;;;15.90;99.10;;;;;;5013728;28;87743;-78
2023/08/23 02:27:10;;;;;;;6.00;1.27;;;16.00;99.10;;;;;;5008159;28;90442;-78
2023/08/23 02:29:36;;;;;;;6.78;1.92;;;15.90;99.10;;;;;;5016012;28;88694;-76
2023/08/23 02:32:02;;;;;;;4.78;1.33;;;15.90;99.40;;;;;;5013500;28;91319;-76
2023/08/23 02:34:27;;;;;;;5.93;1.70;;;15.90;99.50;;;;;;5013049;28;88846;-75
2023/08/23 02:36:53;;;;;;;5.88;1.60;;;15.90;99.50;;;;;;5014099;28;90354;-78
2023/08/23 02:39:19;;;;;;;5.60;1.55;;;15.90;99.50;;;;;;4997027;28;91638;-78
2023/08/23 02:41:45;;;;;;;7.00;1.63;;;15.90;99.40;;;;;;5017166;28;88980;-78
2023/08/23 02:44:10;;;;;;;4.07;1.40;;;15.90;99.30;;;;;;4997540;28;87810;-78
2023/08/23 02:46:36;;;;;;;4.90;1.40;;;15.90;99.20;;;;;;5014388;28;87341;-79
2023/08/23 02:49:02;;;;;;;6.85;1.40;;;15.90;99.20;;;;;;5015704;28;87970;-78
2023/08/23 02:51:27;;;;;;;2.42;1.60;;;15.90;99.20;;;;;;5016064;28;88386;-79
2023/08/23 02:53:53;;;;;;;4.97;1.33;;;15.90;99.00;;;;;;4997951;28;87419;-78
2023/08/23 02:56:18;;;;;;;4.90;2.20;;;15.80;98.90;;;;;;5012973;28;91730;-78
2023/08/23 02:58:44;;;;;;;4.30;1.30;;;15.80;99.00;;;;;;5015144;28;88786;-78
2023/08/23 03:01:10;;;;;;;4.25;1.70;;;15.80;99.10;;;;;;5015682;28;88065;-78
2023/08/23 03:03:35;;;;;;;7.47;1.95;;;15.80;99.10;;;;;;5012610;28;87570;-79
2023/08/23 03:06:01;;;;;;;2.85;1.80;;;15.70;99.00;;;;;;4997336;28;90568;-78
2023/08/23 03:08:27;;;;;;;4.03;1.58;;;15.70;99.10;;;;;;5013869;28;92039;-78
2023/08/23 03:11:04;;;;;;;5.32;1.88;;;15.60;99.10;;;;;;5014183;28;90286;-78
2023/08/23 03:13:30;;;;;;;9.95;1.95;;;15.60;99.10;;;;;;5015646;28;87706;-78
2023/08/23 03:15:55;;;;;;;4.13;1.80;;;15.70;99.10;;;;;;4997641;28;89562;-78
2023/08/23 03:18:22;;;;;;;8.32;1.85;;;15.60;99.20;;;;;;5013229;28;91755;-77
2023/08/23 03:20:51;;;;;;;5.13;1.80;;;15.60;99.10;;;;;;5014620;28;88364;-78
2023/08/23 03:23:18;;;;;;;3.30;1.80;;;15.50;99.20;;;;;;5012541;28;88067;-78
2023/08/23 03:25:48;;;;;;;2.33;1.42;;;15.50;99.20;;;;;;4993289;28;89328;-77
2023/08/23 03:28:14;;;;;;;6.50;1.80;;;15.50;99.10;;;;;;5012501;28;88625;-77
2023/08/23 03:30:41;;;;;;;3.38;1.65;;;15.40;99.00;;;;;;5012306;28;87730;-78
2023/08/23 03:33:06;;;;;;;7.68;1.92;;;15.40;99.10;;;;;;5012892;28;87819;-78
2023/08/23 03:35:33;;;;;;;2.63;1.67;;;15.30;99.10;;;;;;5012289;28;87876;-78
2023/08/23 03:37:59;;;;;;;4.72;1.67;;;15.30;99.30;;;;;;5010407;28;90189;-78
2023/08/23 03:40:24;;;;;;;2.70;1.50;;;15.30;99.10;;;;;;5015291;28;88858;-78
2023/08/23 03:42:50;;;;;;;7.82;1.40;;;15.30;99.20;;;;;;5015934;28;87166;-78
2023/08/23 03:45:17;;;;;;;2.78;1.50;;;15.20;99.20;;;;;;5014902;28;88000;-78
2023/08/23 03:47:44;;;;;;;5.90;1.80;;;15.20;99.20;;;;;;4995851;28;91046;-77
2023/08/23 03:50:10;;;;;;;5.00;1.58;;;15.20;99.20;;;;;;5015002;28;88473;-77
2023/08/23 03:52:36;;;;;;;6.93;2.00;;;15.20;99.10;;;;;;4995922;28;87545;-77
2023/08/23 03:55:01;;;;;;;8.55;2.22;;;15.10;99.20;;;;;;5014786;28;87702;-77
2023/08/23 03:57:27;;;;;;;4.68;2.10;;;15.10;99.40;;;;;;5013995;28;91833;-77
2023/08/23 03:59:53;;;;;;;6.88;1.73;;;15.10;99.90;;;;;;5018508;28;87529;-78
2023/08/23 04:02:19;;;;;;;2.97;1.50;;;15.00;99.90;;;;;;4999620;28;87561;-77
2023/08/23 04:04:45;;;;;;;5.15;1.75;;;15.00;99.90;;;;;;5018480;28;87411;-77
2023/08/23 04:07:14;;;;;;;5.70;1.60;;;15.00;99.90;;;;;;5017772;28;88562;-78
2023/08/23 04:09:40;;;;;;;3.22;1.83;;;15.00;99.90;;;;;;5017868;28;88616;-78
2023/08/23 04:12:07;;;;;;;2.05;1.30;;;14.90;99.90;;;;;;5000060;28;88110;-78
2023/08/23 04:14:33;;;;;;;3.13;1.55;;;14.90;99.90;;;;;;5017587;28;89829;-77
2023/08/23 04:16:59;;;;;;;5.75;1.52;;;14.90;99.90;;;;;;5015961;28;92083;-78
2023/08/23 04:19:26;;;;;;;4.53;1.60;;;14.90;99.90;;;;;;5018184;28;88473;-77
2023/08/23 04:21:51;;;;;;;5.47;1.70;;;14.90;99.90;;;;;;5018649;28;87692;-78
2023/08/23 04:24:17;;;;;;;3.72;1.50;;;14.90;99.80;;;;;;5017581;28;89642;-78
2023/08/23 04:26:43;;;;;;;3.88;1.40;;;14.80;99.90;;;;;;5020105;28;88677;-78
2023/08/23 04:29:09;;;;;;;3.15;1.48;;;14.80;99.80;;;;;;5019394;28;87186;-77
2023/08/23 04:31:34;;;;;;;4.57;1.80;;;14.80;99.70;;;;;;5016261;28;87701;-77
2023/08/23 04:34:02;;;;;;;3.53;2.00;;;14.70;99.80;;;;;;5000240;28;89218;-77
2023/08/23 04:36:28;;;;;;;2.88;1.83;;;14.70;99.80;;;;;;4998020;28;91732;-78
2023/08/23 04:38:54;;;;;;;4.82;2.15;;;14.70;99.80;;;;;;5018755;28;89261;-77
2023/08/23 04:41:20;;;;;;;3.47;2.03;;;14.70;99.90;;;;;;5016489;28;88062;-78
2023/08/23 04:43:46;;;;;;;4.53;2.30;;;14.70;99.90;;;;;;5001240;28;91140;-78
2023/08/23 04:46:11;;;;;;;10.60;2.20;;;14.70;99.90;;;;;;5017805;28;87905;-78
2023/08/23 04:48:37;;;;;;;2.72;1.55;;;14.60;99.90;;;;;;5016163;28;88995;-78
2023/08/23 04:51:05;;;;;;;4.45;1.75;;;14.60;99.90;;;;;;5018745;28;87472;-77
2023/08/23 04:53:31;;;;;;;3.08;1.70;;;14.60;99.90;;;;;;5017830;28;87433;-78
2023/08/23 04:55:59;;;;;;;18.95;2.25;;;14.60;99.90;;;;;;5014877;28;89444;-77
2023/08/23 04:58:31;;;;;;;4.22;1.55;;;14.60;99.90;;;;;;4998876;28;91451;-77
2023/08/23 05:00:58;;;;;;;7.90;2.08;;;14.60;99.90;;;;;;5007459;28;88788;-77
2023/08/23 05:03:27;;;;;;;6.75;1.98;;;14.60;99.90;;;;;;5016537;28;87827;-77
2023/08/23 05:05:53;;;;;;;5.70;2.05;;;14.60;99.90;;;;;;4999606;28;88761;-77
2023/08/23 05:08:19;;;;;;;9.10;1.90;;;14.60;99.90;;;;;;4998601;28;90711;-77
2023/08/23 05:10:44;;;;;;;3.88;1.90;;;14.60;99.90;;;;;;4997878;28;89230;-77
2023/08/23 05:13:10;;;;;;;6.50;2.03;;;14.60;99.90;;;;;;5016597;28;87756;-77
2023/08/23 05:15:35;;;;;;;5.18;2.60;;;14.60;99.90;;;;;;5016123;28;88896;-77
2023/08/23 05:18:01;;;;;;;8.88;2.58;;;14.60;99.90;;;;;;5018329;28;89381;-77
2023/08/23 05:20:27;;;;;;;6.60;2.60;;;14.50;99.90;;;;;;5014523;28;87536;-77
2023/08/23 05:22:52;;;;;;;6.57;2.50;;;14.60;99.90;;;;;;5015084;28;90279;-77
2023/08/23 05:25:18;;;;;;;3.83;2.22;;;14.60;99.90;;;;;;5015536;28;88979;-77
2023/08/23 05:27:43;;;;;;;6.60;2.33;;;14.60;99.90;;;;;;5016245;28;89382;-77
2023/08/23 05:30:09;;;;;;;4.65;2.40;;;14.70;99.90;;;;;;5017466;28;87397;-77
2023/08/23 05:32:35;;;;;;;5.22;2.95;;;14.70;99.90;;;;;;5016595;28;93448;-80
2023/08/23 05:35:01;;;;;;;6.95;2.90;;;14.70;99.90;;;;;;5016291;28;88565;-80
2023/08/23 05:37:26;;;;;;;7.72;2.67;;;14.80;99.90;;;;;;5016687;28;87835;-80
2023/08/23 05:39:52;;;;;;;5.43;2.53;;;14.80;99.90;;;;;;5016683;28;87130;-80
2023/08/23 05:42:18;;;;;;;10.75;2.90;;;14.80;99.90;;;;;;5016777;28;88245;-80
2023/08/23 05:44:43;;;;;;;6.45;3.00;;;14.90;99.90;;;;;;4998008;28;91542;-80
2023/08/23 05:47:09;;;;;;;5.85;3.28;;;15.00;99.90;;;;;;5005195;28;91315;-80
2023/08/23 05:49:35;;;;;;;5.65;2.75;;;15.00;99.90;;;;;;4997905;28;88763;-82
2023/08/23 05:52:00;;;;;;;5.80;2.85;;;15.00;99.90;;;;;;4997245;28;89348;-80
2023/08/23 05:54:26;;;;;;;6.57;2.78;;;15.10;99.90;;;;;;5013900;28;91769;-80
2023/08/23 05:56:52;;;;;;;8.88;3.45;;;15.20;99.90;;;;;;5018141;28;87991;-80
2023/08/23 05:59:17;;;;;;;7.68;3.75;;;15.30;99.90;;;;;;5008054;28;87650;-79
2023/08/23 06:01:43;;;;;;;12.10;3.63;;;15.40;99.90;;;;;;5013596;28;90885;-81
2023/08/23 06:04:08;;;;;;;7.05;3.90;;;15.40;99.90;;;;;;5014436;28;91569;-80
2023/08/23 06:06:34;;;;;;;19.80;4.38;;;15.50;99.90;;;;;;5013136;28;95604;-80
2023/08/23 06:09:00;;;;;;;11.95;5.38;;;15.60;99.90;;;;;;5016146;28;87859;-80
2023/08/23 06:11:26;;;;;;;12.18;4.07;;;15.70;99.90;;;;;;5014978;28;87356;-80
2023/08/23 06:13:51;;;;;;;8.95;4.60;;;15.70;99.90;;;;;;4996703;28;91208;-80
2023/08/23 06:16:17;;;;;;;9.98;4.35;;;15.80;99.90;;;;;;5015342;28;88377;-80
2023/08/23 06:18:43;;;;;;;13.32;5.20;;;15.90;99.90;;;;;;5014777;28;87486;-80
2023/08/23 06:21:08;;;;;;;11.80;4.70;;;16.00;99.90;;;;;;5015172;28;87457;-79
2023/08/23 06:23:36;;;;;;;10.45;4.53;;;16.10;99.90;;;;;;5015663;28;87441;-78
2023/08/23 06:26:03;;;;;;;12.07;4.55;;;16.20;99.90;;;;;;5015762;28;88045;-78
2023/08/23 06:28:29;;;;;;;17.02;4.50;;;16.30;99.90;;;;;;5015048;28;87844;-80
2023/08/23 06:30:56;;;;;;;6.47;5.07;;;16.40;99.90;;;;;;5016538;28;88677;-80
2023/08/23 06:33:22;;;;;;;10.15;4.53;;;16.50;99.90;;;;;;5015447;28;89237;-81
2023/08/23 06:35:47;;;;;;;11.70;4.63;;;16.60;99.90;;;;;;5016359;28;88136;-80
2023/08/23 06:38:15;;;;;;;9.63;5.00;;;16.70;99.90;;;;;;5014261;28;89020;-81
2023/08/23 06:40:42;;;;;;;8.65;4.63;;;16.80;99.90;;;;;;4997227;28;90498;-81
2023/08/23 06:43:08;;;;;;;7.45;4.43;;;16.90;99.90;;;;;;5015153;28;88287;-81
2023/08/23 06:45:34;;;;;;;10.32;5.05;;;17.00;99.90;;;;;;5015512;28;88501;-80
2023/08/23 06:47:59;;;;;;;10.85;5.38;;;17.20;99.90;;;;;;4998267;28;87809;-80
2023/08/23 06:50:25;;;;;;;12.93;4.75;;;17.20;99.90;;;;;;5014386;28;90760;-80
2023/08/23 06:52:51;;;;;;;11.85;5.03;;;17.30;99.90;;;;;;5015907;28;89290;-80
2023/08/23 06:55:16;;;;;;;13.20;5.28;;;17.50;99.70;;;;;;5016247;28;88551;-80
2023/08/23 06:57:42;;;;;;;10.98;4.88;;;17.60;99.70;;;;;;5014346;28;87409;-79
2023/08/23 07:00:08;;;;;;;15.30;5.95;;;17.70;99.50;;;;;;4998449;28;91025;-80
2023/08/23 07:02:34;;;;;;;17.40;5.55;;;17.80;99.60;;;;;;5015700;28;88709;-79
2023/08/23 07:05:00;;;;;;;10.38;5.18;;;17.90;99.60;;;;;;5014848;28;87743;-77
2023/08/23 07:07:26;;;;;;;9.23;5.55;;;18.00;99.50;;;;;;5014155;28;87570;-78
2023/08/23 07:09:52;;;;;;;19.48;5.85;;;18.10;99.60;;;;;;5014693;28;87769;-78
2023/08/23 07:12:18;;;;;;;12.18;5.35;;;18.20;99.60;;;;;;5012676;28;91221;-79
2023/08/23 07:14:46;;;;;;;11.15;4.85;;;18.30;99.50;;;;;;5012431;28;88003;-81
2023/08/23 07:17:13;;;;;;;25.33;6.88;;;18.40;98.60;;;;;;5012913;28;87985;-84
2023/08/23 07:19:38;;;;;;;9.43;5.18;;;18.50;98.60;;;;;;5010758;28;90170;-82
2023/08/23 07:22:04;;;;;;;15.10;5.88;;;18.60;98.40;;;;;;5014002;28;87317;-82
2023/08/23 07:24:31;;;;;;;10.95;5.53;;;18.80;98.30;;;;;;5013629;28;88559;-84
2023/08/23 07:26:56;;;;;;;13.52;5.82;;;18.90;98.10;;;;;;5015254;28;88748;-83
2023/08/23 07:29:22;;;;;;;10.10;5.63;;;19.00;98.20;;;;;;4997372;28;88753;-84
2023/08/23 07:31:48;;;;;;;14.80;6.38;;;19.10;97.90;;;;;;5017361;28;90004;-82
2023/08/23 07:34:13;;;;;;;18.33;6.13;;;19.20;96.80;;;;;;5000873;28;91167;-84
2023/08/23 07:36:39;;;;;;;13.45;6.18;;;19.30;97.20;;;;;;5016862;28;87730;-82
2023/08/23 07:39:04;;;;;;;8.15;5.72;;;19.40;97.30;;;;;;5019223;28;87938;-82
2023/08/23 07:41:30;;;;;;;11.70;5.72;;;19.50;97.00;;;;;;4999201;28;91661;-81
2023/08/23 07:43:56;;;;;;;11.18;5.90;;;19.60;95.90;;;;;;5019080;28;88130;-85
2023/08/23 07:46:24;;;;;;;18.17;6.45;;;19.80;95.90;;;;;;5000738;28;88024;-84
2023/08/23 07:48:49;;;;;;;13.13;5.93;;;19.90;95.50;;;;;;5019221;28;87879;-83
2023/08/23 07:51:15;;;;;;;10.45;5.40;;;19.90;96.20;;;;;;5015758;28;92575;-82
2023/08/23 07:53:43;;;;;;;10.60;6.13;;;20.00;96.10;;;;;;5019466;28;91093;-83
2023/08/23 07:56:11;;;;;;;12.07;5.65;;;20.20;95.70;;;;;;5019486;28;87583;-82
2023/08/23 07:58:38;;;;;;;14.25;6.10;;;20.30;95.60;;;;;;4999757;28;89931;-83
2023/08/23 08:01:07;;;;;;;13.82;5.85;;;20.40;95.80;;;;;;5015835;28;91770;-83
2023/08/23 08:03:33;;;;;;;8.35;6.25;;;20.60;95.90;;;;;;5016788;28;91143;-83
2023/08/23 08:05:58;;;;;;;10.40;5.80;;;20.60;95.80;;;;;;5017209;28;87817;-83
2023/08/23 08:08:25;;;;;;;9.93;6.32;;;20.80;95.70;;;;;;5000300;28;90092;-83
2023/08/23 08:10:50;;;;;;;14.10;6.00;;;20.80;95.40;;;;;;5016559;28;91809;-83
2023/08/23 08:13:16;;;;;;;12.80;5.40;;;21.00;95.10;;;;;;5000160;28;91583;-83
2023/08/23 08:15:42;;;;;;;13.63;6.75;;;21.10;95.00;;;;;;5018238;28;88346;-83
2023/08/23 08:18:08;;;;;;;21.55;6.28;;;21.20;94.30;;;;;;5018211;28;90442;-84
2023/08/23 08:20:34;;;;;;;9.50;5.53;;;21.40;94.00;;;;;;5015061;28;90757;-84
2023/08/23 08:22:59;;;;;;;11.85;6.03;;;21.40;93.60;;;;;;5016139;28;94421;-84
2023/08/23 08:25:25;;;;;;;13.45;5.60;;;21.60;92.90;;;;;;5019999;28;87721;-84
2023/08/23 08:28:01;;;;;;;15.90;6.00;;;21.70;92.90;;;;;;5000132;28;88995;-82
2023/08/23 08:30:27;;;;;;;7.50;5.28;;;21.80;92.50;;;;;;4999955;28;90563;-82
2023/08/23 08:32:53;;;;;;;8.13;5.28;;;22.00;92.40;;;;;;5017200;28;90167;-83
2023/08/23 08:35:20;;;;;;;13.00;6.13;;;22.20;92.30;;;;;;4999642;28;87672;-82
2023/08/23 08:37:46;;;;;;;9.13;4.72;;;22.40;91.20;;;;;;4999359;28;89299;-83
2023/08/23 08:40:11;;;;;;;13.50;5.18;;;22.50;90.90;;;;;;5016973;28;88639;-82
2023/08/23 08:42:38;;;;;;;13.25;5.68;;;22.60;90.20;;;;;;5006423;28;92034;-82
2023/08/23 08:45:05;;;;;;;7.60;4.30;;;22.80;90.10;;;;;;5019003;28;87723;-84
2023/08/23 08:47:31;;;;;;;12.93;5.63;;;22.90;90.40;;;;;;4997178;28;90971;-84
2023/08/23 08:49:57;;;;;;;11.43;5.22;;;23.10;89.40;;;;;;4998216;28;91037;-84
2023/08/23 08:52:26;;;;;;;13.40;5.20;;;23.30;89.60;;;;;;5016666;28;89982;-83
2023/08/23 08:54:54;;;;;;;12.93;5.13;;;23.50;88.80;;;;;;4999549;28;87737;-81
2023/08/23 08:57:22;;;;;;;15.50;5.53;;;23.60;88.30;;;;;;4998608;28;90856;-81
2023/08/23 08:59:49;;;;;;;16.65;5.63;;;23.80;88.00;;;;;;4998665;28;90681;-80
2023/08/23 09:02:18;;;;;;;12.60;4.07;;;23.90;87.40;;;;;;4999250;28;90610;-83
2023/08/23 09:04:48;;;;;;;9.85;4.50;;;24.10;85.20;;;;;;5000160;28;88115;-83
2023/08/23 09:07:14;;;;;;;9.82;4.82;;;24.30;84.30;;;;;;4999316;28;88736;-82
2023/08/23 09:09:42;;;;;;;12.05;4.50;;;24.50;82.80;;;;;;5000018;28;90271;-81
2023/08/23 09:12:08;;;;;;;6.75;3.95;;;24.60;81.40;;;;;;5000267;28;90802;-81
2023/08/23 09:14:33;;;;;;;7.60;2.83;;;24.70;81.70;;;;;;4999790;28;87555;-81
2023/08/23 09:16:59;;;;;;;9.23;3.40;;;24.90;80.50;;;;;;5014989;28;90806;-81
2023/08/23 09:19:25;;;;;;;10.48;3.70;;;25.00;77.80;;;;;;5017433;28;92037;-81
2023/08/23 09:21:50;;;;;;;8.45;3.63;;;25.10;77.70;;;;;;4997294;28;90973;-80
2023/08/23 09:24:17;;;;;;;6.60;3.15;;;25.20;77.20;;;;;;5014625;28;87670;-81
2023/08/23 09:26:46;;;;;;;8.32;3.65;;;25.30;77.00;;;;;;4998512;28;89793;-81
2023/08/23 09:29:12;;;;;;;10.23;3.03;;;25.50;77.60;;;;;;4996296;28;91747;-80
2023/08/23 09:31:39;;;;;;;10.68;4.00;;;25.70;80.10;;;;;;5016335;28;88911;-81
2023/08/23 09:34:14;;;;;;;7.72;4.07;;;25.80;77.30;;;;;;5016736;28;87496;-81
2023/08/23 09:36:40;;;;;;;9.85;3.85;;;26.00;78.80;;;;;;4997567;28;91038;-81
2023/08/23 09:39:12;;;;;;;6.10;2.95;;;26.20;76.60;;;;;;5016622;28;88672;-82
2023/08/23 09:41:42;;;;;;;14.25;4.72;;;26.40;79.50;;;;;;5015457;28;95656;-82
2023/08/23 09:44:08;;;;;;;11.52;4.57;;;26.70;79.20;;;;;;5016300;28;87562;-81
2023/08/23 09:46:36;;;;;;;9.18;5.25;;;26.90;75.50;;;;;;4997326;28;89662;-77
2023/08/23 09:49:05;;;;;;;11.45;4.32;;;27.00;72.90;;;;;;5013598;28;91843;-77
2023/08/23 09:51:36;;;;;;;9.25;4.75;;;27.20;77.50;;;;;;5013103;28;91109;-77
2023/08/23 09:54:10;;;;;;;8.27;4.70;;;27.40;77.30;;;;;;5014914;28;88733;-77
2023/08/23 09:56:36;;;;;;;9.82;5.65;;;27.60;73.00;;;;;;5015663;28;92331;-77
2023/08/23 09:59:02;;;;;;;15.52;6.53;;;27.80;71.80;;;;;;4996465;28;91393;-77
2023/08/23 10:01:28;;;;;;;15.32;6.50;;;27.80;70.10;;;;;;5015027;28;88079;-77
2023/08/23 10:03:55;;;;;;;10.65;5.03;;;27.80;73.20;;;;;;4996700;28;87766;-77
2023/08/23 10:06:21;;;;;;;11.77;5.70;;;28.00;75.10;;;;;;4996309;28;90472;-77
2023/08/23 10:08:47;;;;;;;12.98;5.32;;;28.30;73.20;;;;;;4997019;28;91747;-77
2023/08/23 10:11:14;;;;;;;11.85;5.30;;;28.50;68.70;;;;;;5015168;28;88456;-77
2023/08/23 10:13:41;;;;;;;8.80;4.05;;;28.50;67.20;;;;;;5015015;28;87733;-77
2023/08/23 10:16:08;;;;;;;12.77;4.88;;;28.40;69.20;;;;;;5015185;28;87652;-76
2023/08/23 10:18:35;;;;;;;12.00;5.30;;;28.60;68.40;;;;;;5014755;28;89449;-76
2023/08/23 10:21:02;;;;;;;11.43;5.38;;;28.70;68.50;;;;;;5013511;28;92386;-77
2023/08/23 10:23:32;;;;;;;10.18;5.53;;;28.60;67.40;;;;;;5015305;28;87395;-77
2023/08/23 10:25:59;;;;;;;10.88;5.32;;;28.70;67.10;;;;;;5004674;28;88448;-77
2023/08/23 10:28:24;;;;;;;9.85;5.30;;;28.60;66.60;;;;;;5017064;28;88981;-77
2023/08/23 10:30:54;;;;;;;12.25;5.15;;;28.60;65.20;;;;;;5015802;28;90818;-77
2023/08/23 10:33:20;;;;;;;9.45;5.28;;;28.50;64.40;;;;;;4997332;28;87836;-77
2023/08/23 10:35:47;;;;;;;13.75;5.55;;;28.50;67.00;;;;;;5006601;28;91108;-78
2023/08/23 10:38:14;;;;;;;14.85;5.47;;;28.50;66.90;;;;;;5016774;28;88527;-77
2023/08/23 10:40:43;;;;;;;8.00;3.10;;;28.80;66.60;;;;;;5014346;28;87757;-77
2023/08/23 10:43:14;;;;;;;7.40;2.60;;;28.90;66.30;;;;;;5013374;28;88720;-77
2023/08/23 10:46:03;;;;;;;5.18;1.60;;;29.00;60.90;;;;;;5013629;28;87695;-77
2023/08/23 10:48:29;;;;;;;7.65;2.20;;;29.10;63.90;;;;;;5011608;28;91855;-77
2023/08/23 10:50:54;;;;;;;2.78;1.83;;;29.10;58.60;;;;;;5015043;28;87799;-77
2023/08/23 10:53:21;;;;;;;9.60;2.38;;;29.10;59.90;;;;;;5013591;28;87491;-77
2023/08/23 10:55:47;;;;;;;3.55;1.27;;;29.20;59.90;;;;;;5014010;28;87701;-77
2023/08/23 10:58:14;;;;;;;5.35;1.75;;;29.30;59.10;;;;;;5004596;28;91619;-77
2023/08/23 11:00:50;;;;;;;4.72;1.80;;;29.30;58.30;;;;;;5014945;28;91194;-77
2023/08/23 11:03:17;;;;;;;4.82;2.17;;;29.30;58.40;;;;;;4995932;28;88806;-77
2023/08/23 11:05:43;;;;;;;4.40;1.63;;;29.30;60.40;;;;;;4996695;28;90675;-77
2023/08/23 11:08:10;;;;;;;5.13;1.27;;;29.30;62.10;;;;;;5018003;28;89628;-77
2023/08/23 11:10:37;;;;;;;3.53;1.60;;;29.30;61.80;;;;;;5017677;28;89023;-77
2023/08/23 11:13:03;;;;;;;1.88;1.13;;;29.60;56.10;;;;;;5016991;28;87514;-77
2023/08/23 11:15:29;;;;;;;4.15;1.08;;;29.60;56.60;;;;;;5017586;28;88145;-77
2023/08/23 11:17:58;;;;;;;3.33;0.90;;;29.60;57.50;;;;;;5018600;28;88962;-77
2023/08/23 11:20:24;;;;;;;4.70;1.10;;;29.70;59.10;;;;;;5017194;28;88489;-78
2023/08/23 11:22:50;;;;;;;4.07;1.10;;;29.80;58.40;;;;;;5017886;28;87780;-77
2023/08/23 11:25:15;;;;;;;5.35;1.02;;;29.80;57.10;;;;;;5018273;28;87361;-77
2023/08/23 11:27:41;;;;;;;2.67;0.98;;;29.90;59.00;;;;;;4999596;28;91431;-79
2023/08/23 11:30:07;;;;;;;3.83;1.15;;;30.00;57.90;;;;;;5017356;28;91181;-78
2023/08/23 11:32:33;;;;;;;3.83;1.10;;;30.10;59.10;;;;;;5017085;28;88963;-78
2023/08/23 11:35:00;;;;;;;4.22;1.20;;;30.40;57.20;;;;;;5017541;28;87948;-78
2023/08/23 11:37:25;;;;;;;7.38;1.20;;;30.50;56.10;;;;;;5016156;28;91162;-79
2023/08/23 11:39:58;;;;;;;10.07;2.03;;;30.50;56.00;;;;;;5018163;28;88300;-78
2023/08/23 11:42:25;;;;;;;5.70;1.60;;;30.50;56.90;;;;;;5017517;28;87563;-78
2023/08/23 11:44:57;;;;;;;3.58;0.98;;;30.50;56.80;;;;;;4999586;28;89517;-77
2023/08/23 11:47:26;;;;;;;4.93;1.45;;;30.50;56.20;;;;;;5017810;28;88664;-78
2023/08/23 11:49:52;;;;;;;4.95;0.85;;;30.70;56.40;;;;;;5017600;28;88389;-78
2023/08/23 11:52:18;;;;;;;3.85;1.60;;;30.70;57.50;;;;;;4999483;28;87417;-77
2023/08/23 11:54:44;;;;;;;3.58;0.93;;;30.70;56.90;;;;;;5017111;28;87836;-78
2023/08/23 11:57:14;;;;;;;2.90;1.20;;;30.80;55.70;;;;;;5018068;28;89090;-78
2023/08/23 11:59:40;;;;;;;4.68;1.17;;;30.90;55.20;;;;;;5018742;28;89120;-78
2023/08/23 12:02:07;;;;;;;3.47;1.40;;;31.00;54.20;;;;;;5018331;28;87392;-78
2023/08/23 12:04:33;;;;;;;3.25;0.73;;;30.90;54.60;;;;;;5017441;28;87696;-78
2023/08/23 12:06:59;;;;;;;5.90;1.08;;;31.00;58.40;;;;;;5017182;28;88782;-78
2023/08/23 12:09:27;;;;;;;7.00;1.58;;;31.10;55.00;;;;;;4998726;28;92806;-78
2023/08/23 12:11:53;;;;;;;9.48;1.45;;;31.20;57.60;;;;;;4999251;28;87659;-78
2023/08/23 12:14:19;;;;;;;10.98;1.45;;;31.50;57.20;;;;;;4999160;28;90537;-78
2023/08/23 12:16:45;;;;;;;6.35;1.65;;;31.60;55.00;;;;;;5017300;28;88538;-79
2023/08/23 12:19:11;;;;;;;4.68;1.17;;;31.40;54.70;;;;;;5013775;28;91163;-78
2023/08/23 12:21:36;;;;;;;4.63;1.02;;;31.30;54.90;;;;;;5013997;28;88631;-78
2023/08/23 12:24:02;;;;;;;3.97;1.52;;;31.30;56.00;;;;;;5016794;28;90972;-78
2023/08/23 12:26:28;;;;;;;2.83;0.80;;;31.30;54.20;;;;;;5016098;28;87784;-79
2023/08/23 12:28:54;;;;;;;3.70;0.77;;;31.20;54.80;;;;;;5017101;28;88350;-78
2023/08/23 12:31:20;;;;;;;7.18;1.08;;;31.20;55.30;;;;;;5017289;28;87608;-79
2023/08/23 12:33:46;;;;;;;4.72;1.00;;;31.30;56.10;;;;;;5017088;28;87616;-79
2023/08/23 12:36:15;;;;;;;5.60;0.90;;;31.50;55.60;;;;;;5016577;28;88699;-79
2023/08/23 12:38:41;;;;;;;2.63;1.08;;;31.60;55.20;;;;;;5018545;28;88323;-79
2023/08/23 12:41:07;;;;;;;4.20;1.00;;;31.70;54.80;;;;;;5015751;28;87596;-79